createdAt,value
2024-01-10T00:00:54.110Z,71.97
2024-01-10T00:03:20.867Z,72.36
2024-01-10T00:05:47.557Z,71.74
2024-01-10T00:08:14.303Z,71.44
2024-01-10T00:10:41.069Z,72.20
2024-01-10T00:13:07.650Z,72.51
2024-01-10T00:15:34.245Z,72.22
2024-01-10T00:18:01.264Z,72.05
2024-01-10T00:20:28.075Z,72.45
2024-01-10T00:22:54.777Z,72.32
2024-01-10T00:25:21.565Z,72.97
2024-01-10T00:27:48.172Z,73.09
2024-01-10T00:30:15.007Z,74.62
2024-01-10T00:32:41.666Z,74.56
2024-01-10T00:35:08.598Z,74.79
2024-01-10T00:37:35.331Z,75.20
2024-01-10T00:40:02.031Z,74.86
2024-01-10T00:42:28.673Z,74.99
2024-01-10T00:44:55.316Z,76.25
2024-01-10T00:47:22.024Z,75.95
2024-01-10T00:49:48.785Z,76.01
2024-01-10T00:52:15.505Z,75.60
2024-01-10T00:54:42.126Z,76.84
2024-01-10T00:57:08.752Z,75.61
2024-01-10T00:59:35.379Z,80.12
2024-01-10T01:02:02.182Z,80.69
2024-01-10T01:04:28.886Z,80.75
2024-01-10T01:06:55.567Z,80.80
2024-01-10T01:09:22.208Z,78.09
2024-01-10T01:11:48.854Z,76.56
2024-01-10T01:14:15.743Z,76.00
2024-01-10T01:16:42.541Z,75.49
2024-01-10T01:19:09.226Z,75.75
2024-01-10T01:21:35.843Z,75.05
2024-01-10T01:24:02.557Z,75.18
2024-01-10T01:26:29.132Z,74.45
2024-01-10T01:28:55.780Z,75.02
2024-01-10T01:31:22.529Z,74.74
2024-01-10T01:33:49.172Z,75.15
2024-01-10T01:36:15.825Z,75.26
2024-01-10T01:38:42.423Z,75.84
2024-01-10T01:41:09.118Z,75.35
2024-01-10T01:43:35.802Z,74.59
2024-01-10T01:46:03.733Z,74.27
2024-01-10T01:48:31.070Z,72.98
2024-01-10T01:51:07.128Z,73.88
2024-01-10T01:53:37.528Z,74.38
2024-01-10T01:56:08.304Z,73.89
2024-01-10T01:58:36.240Z,73.25
2024-01-10T02:01:06.772Z,73.26
2024-01-10T02:03:33.978Z,73.29
2024-01-10T02:06:01.349Z,74.02
2024-01-10T02:08:28.000Z,74.00
2024-01-10T02:10:54.631Z,73.62
2024-01-10T02:13:21.393Z,72.17
2024-01-10T02:15:48.016Z,72.70
2024-01-10T02:18:17.638Z,73.18
2024-01-10T02:20:47.412Z,72.56
2024-01-10T02:23:14.193Z,74.60
2024-01-10T02:25:42.059Z,73.74
2024-01-10T02:28:08.929Z,75.34
2024-01-10T02:30:35.855Z,77.15
2024-01-10T02:33:02.741Z,75.67
2024-01-10T02:35:29.357Z,77.16
2024-01-10T02:37:56.061Z,77.56
2024-01-10T02:40:22.779Z,78.02
2024-01-10T02:42:49.469Z,77.33
2024-01-10T02:45:16.087Z,76.11
2024-01-10T02:47:42.891Z,77.46
2024-01-10T02:50:09.964Z,77.70
2024-01-10T02:52:36.684Z,76.18
2024-01-10T02:55:03.391Z,75.82
2024-01-10T02:57:30.026Z,73.13
2024-01-10T02:59:56.675Z,74.34
2024-01-10T03:02:26.696Z,75.02
2024-01-10T03:04:53.567Z,75.30
2024-01-10T03:07:20.290Z,74.65
2024-01-10T03:09:46.894Z,74.75
2024-01-10T03:12:13.555Z,75.45
2024-01-10T03:14:40.223Z,75.06
2024-01-10T03:17:06.953Z,74.74
2024-01-10T03:19:33.658Z,75.12
2024-01-10T03:22:00.278Z,74.58
2024-01-10T03:24:27.124Z,75.34
2024-01-10T03:26:53.979Z,74.65
2024-01-10T03:29:20.650Z,75.03
2024-01-10T03:31:47.473Z,76.33
2024-01-10T03:34:14.323Z,76.32
2024-01-10T03:36:41.023Z,76.70
2024-01-10T03:39:07.677Z,75.65
2024-01-10T03:41:34.292Z,76.47
2024-01-10T03:44:00.978Z,76.07
2024-01-10T03:46:27.657Z,76.57
2024-01-10T03:48:54.429Z,77.58
2024-01-10T03:51:21.182Z,78.50
2024-01-10T03:53:47.966Z,78.69
2024-01-10T03:56:14.715Z,78.99
2024-01-10T03:58:41.685Z,79.75
2024-01-10T04:01:09.847Z,79.48
2024-01-10T04:03:37.436Z,79.36
2024-01-10T04:06:04.308Z,79.00
2024-01-10T04:08:31.341Z,80.13
2024-01-10T04:10:58.120Z,82.10
2024-01-10T04:13:24.986Z,81.85
2024-01-10T04:15:51.638Z,80.54
2024-01-10T04:18:18.326Z,79.20
2024-01-10T04:20:45.219Z,79.64
2024-01-10T04:23:12.164Z,80.78
2024-01-10T04:25:39.079Z,81.49
2024-01-10T04:28:06.283Z,80.49
2024-01-10T04:30:33.182Z,81.25
2024-01-10T04:32:59.933Z,81.08
2024-01-10T04:35:26.670Z,81.24
2024-01-10T04:37:53.458Z,81.09
2024-01-10T04:40:20.176Z,82.02
2024-01-10T04:42:46.775Z,82.55
2024-01-10T04:45:13.627Z,82.02
2024-01-10T04:47:40.254Z,83.00
2024-01-10T04:50:10.603Z,84.08
2024-01-10T04:52:41.950Z,84.87
2024-01-10T04:55:08.804Z,85.68
2024-01-10T04:57:35.393Z,87.19
2024-01-10T05:00:03.165Z,88.23
2024-01-10T05:02:29.907Z,88.86
2024-01-10T05:04:56.700Z,88.95
2024-01-10T05:07:23.372Z,87.67
2024-01-10T05:09:50.062Z,86.46
2024-01-10T05:12:17.056Z,87.99
2024-01-10T05:14:43.763Z,86.61
2024-01-10T05:17:10.533Z,86.14
2024-01-10T05:19:37.328Z,87.31
2024-01-10T05:22:04.818Z,87.42
2024-01-10T05:24:31.613Z,86.06
2024-01-10T05:26:58.286Z,85.03
2024-01-10T05:29:25.014Z,84.80
2024-01-10T05:31:52.390Z,84.67
2024-01-10T05:34:19.169Z,83.78
2024-01-10T05:36:45.802Z,82.78
2024-01-10T05:39:12.546Z,83.22
2024-01-10T05:41:40.639Z,83.14
2024-01-10T05:44:07.870Z,82.10
2024-01-10T05:46:34.582Z,81.45
2024-01-10T05:49:01.474Z,80.26
2024-01-10T05:51:28.369Z,80.97
2024-01-10T05:53:54.948Z,80.73
2024-01-10T05:56:21.622Z,81.87
2024-01-10T05:58:48.419Z,82.44
2024-01-10T06:01:15.142Z,80.61
2024-01-10T06:03:41.839Z,80.84
2024-01-10T06:06:08.626Z,80.58
2024-01-10T06:08:35.343Z,80.30
2024-01-10T06:11:07.278Z,81.12
2024-01-10T06:13:42.122Z,80.28
2024-01-10T06:16:16.559Z,80.65
2024-01-10T06:18:43.379Z,80.55
2024-01-10T06:21:10.099Z,80.31
2024-01-10T06:23:36.829Z,80.97
2024-01-10T06:26:03.570Z,80.89
2024-01-10T06:28:30.286Z,80.47
2024-01-10T06:30:57.002Z,80.13
2024-01-10T06:33:23.766Z,81.22
2024-01-10T06:35:50.479Z,79.40
2024-01-10T06:38:17.144Z,79.75
2024-01-10T06:40:43.874Z,80.70
2024-01-10T06:43:10.556Z,80.85
2024-01-10T06:45:37.184Z,80.15
2024-01-10T06:48:04.192Z,80.74
2024-01-10T06:50:31.036Z,81.29
2024-01-10T06:52:57.763Z,81.33
2024-01-10T06:55:24.502Z,81.75
2024-01-10T06:57:51.370Z,81.71
2024-01-10T07:00:18.466Z,82.69
2024-01-10T07:02:45.139Z,83.31
2024-01-10T07:05:11.869Z,83.65
2024-01-10T07:07:38.523Z,83.72
2024-01-10T07:10:05.873Z,84.11
2024-01-10T07:12:36.217Z,84.40
2024-01-10T07:15:02.908Z,84.85
2024-01-10T07:17:30.002Z,85.40
2024-01-10T07:19:56.818Z,86.08
2024-01-10T07:22:24.091Z,86.85
2024-01-10T07:24:50.786Z,87.17
2024-01-10T07:27:17.499Z,88.21
2024-01-10T07:29:44.202Z,87.54
2024-01-10T07:32:10.905Z,88.44
2024-01-10T07:34:40.735Z,88.90
2024-01-10T07:37:07.429Z,89.77
2024-01-10T07:39:34.153Z,91.41
2024-01-10T07:42:00.832Z,92.02
2024-01-10T07:44:27.486Z,91.82
2024-01-10T07:46:54.212Z,92.54
2024-01-10T07:49:21.067Z,91.91
2024-01-10T07:51:47.741Z,92.71
2024-01-10T07:54:14.380Z,94.74
2024-01-10T07:56:41.020Z,96.07
2024-01-10T07:59:07.758Z,95.41
2024-01-10T08:01:34.479Z,92.53
2024-01-10T08:04:01.266Z,91.11
2024-01-10T08:06:32.887Z,90.33
2024-01-10T08:09:00.428Z,93.98
2024-01-10T08:11:27.266Z,96.35
2024-01-10T08:13:53.995Z,95.55
2024-01-10T08:16:20.622Z,93.92
2024-01-10T08:18:47.350Z,96.18
2024-01-10T08:21:13.990Z,97.06
2024-01-10T08:23:40.751Z,96.93
2024-01-10T08:26:08.236Z,92.25
2024-01-10T08:28:34.861Z,89.43
2024-01-10T08:31:04.513Z,89.82
2024-01-10T08:33:34.763Z,87.28
2024-01-10T08:36:01.485Z,82.55
2024-01-10T08:38:28.196Z,79.64
2024-01-10T08:40:54.966Z,80.46
2024-01-10T08:43:21.651Z,74.66
2024-01-10T08:45:48.307Z,68.43
2024-01-10T08:48:15.086Z,70.79
2024-01-10T08:50:41.728Z,73.56
2024-01-10T08:53:08.379Z,75.64
2024-01-10T08:55:35.249Z,74.10
2024-01-10T08:58:02.055Z,71.36
2024-01-10T09:00:28.701Z,69.36
2024-01-10T09:02:56.214Z,71.86
2024-01-10T09:05:22.956Z,68.56
2024-01-10T09:07:51.209Z,68.21
2024-01-10T09:10:17.805Z,69.30
2024-01-10T09:12:44.423Z,64.25
2024-01-10T09:15:11.130Z,63.26
2024-01-10T09:17:37.972Z,65.29
2024-01-10T09:20:05.013Z,62.07
2024-01-10T09:22:31.691Z,62.79
2024-01-10T09:24:58.345Z,60.45
2024-01-10T09:27:24.928Z,60.34
2024-01-10T09:29:51.524Z,58.91
2024-01-10T09:32:18.225Z,56.84
2024-01-10T09:34:45.035Z,58.04
2024-01-10T09:37:11.712Z,55.29
2024-01-10T09:39:38.340Z,58.68
2024-01-10T09:42:05.744Z,60.95
2024-01-10T09:44:33.950Z,61.29
2024-01-10T09:47:02.004Z,57.65
2024-01-10T09:49:29.286Z,56.72
2024-01-10T09:51:59.666Z,60.16
2024-01-10T09:54:27.404Z,60.94
2024-01-10T09:56:54.130Z,60.79
2024-01-10T09:59:21.163Z,55.25
2024-01-10T10:01:47.966Z,52.64
2024-01-10T10:04:16.683Z,54.03
2024-01-10T10:06:43.378Z,53.13
2024-01-10T10:09:11.449Z,52.54
2024-01-10T10:11:38.216Z,55.37
2024-01-10T10:14:19.320Z,52.04
2024-01-10T10:16:46.387Z,51.43
2024-01-10T10:19:15.437Z,49.84
2024-01-10T10:21:46.104Z,52.30
2024-01-10T10:24:14.060Z,47.77
2024-01-10T10:26:41.738Z,48.66
2024-01-10T10:29:08.703Z,48.31
2024-01-10T10:31:36.432Z,48.34
2024-01-10T10:34:03.633Z,50.79
2024-01-10T10:36:34.059Z,50.37
2024-01-10T10:39:01.553Z,47.90
2024-01-10T10:41:32.217Z,47.56
2024-01-10T10:43:59.486Z,49.69
2024-01-10T10:46:28.234Z,49.75
2024-01-10T10:48:59.210Z,50.23
2024-01-10T10:51:34.046Z,51.48
2024-01-10T10:54:01.132Z,52.74
2024-01-10T10:56:33.992Z,50.54
2024-01-10T10:59:02.977Z,51.08
2024-01-10T11:01:30.056Z,50.10
2024-01-10T11:03:56.963Z,51.25
2024-01-10T11:06:23.992Z,53.67
2024-01-10T11:09:00.493Z,52.13
2024-01-10T11:11:49.089Z,49.55
2024-01-10T11:14:36.792Z,50.69
2024-01-10T11:17:33.182Z,47.05
2024-01-10T11:20:14.804Z,45.31
2024-01-10T11:22:59.142Z,46.46
2024-01-10T11:25:27.545Z,46.71
2024-01-10T11:28:03.076Z,43.98
2024-01-10T11:30:37.673Z,45.48
2024-01-10T11:33:34.445Z,45.11
2024-01-10T11:36:13.619Z,46.52
2024-01-10T11:38:42.013Z,47.92
2024-01-10T11:41:11.587Z,45.71
2024-01-10T11:43:38.246Z,45.92
2024-01-10T11:46:04.886Z,46.54
2024-01-10T11:48:34.760Z,48.56
2024-01-10T11:51:01.461Z,48.82
2024-01-10T11:53:44.263Z,48.36
2024-01-10T11:56:12.366Z,47.19
2024-01-10T11:59:03.852Z,44.01
2024-01-10T12:01:30.954Z,44.87
2024-01-10T12:04:10.252Z,45.87
2024-01-10T12:06:41.909Z,46.61
2024-01-10T12:09:08.775Z,46.38
2024-01-10T12:11:41.419Z,47.76
2024-01-10T12:14:09.504Z,48.63
2024-01-10T12:16:36.681Z,49.93
2024-01-10T12:19:03.350Z,47.80
2024-01-10T12:21:29.959Z,46.45
2024-01-10T12:23:56.638Z,47.88
2024-01-10T12:26:23.530Z,49.14
2024-01-10T12:28:57.401Z,49.00
2024-01-10T12:31:28.596Z,47.73
2024-01-10T12:34:00.013Z,45.20
2024-01-10T12:36:27.090Z,47.07
2024-01-10T12:38:53.834Z,48.22
2024-01-10T12:41:20.833Z,46.39
2024-01-10T12:43:53.721Z,47.36
2024-01-10T12:46:20.324Z,46.88
2024-01-10T12:49:02.917Z,48.73
2024-01-10T12:51:30.915Z,48.65
2024-01-10T12:53:58.985Z,47.95
2024-01-10T12:56:26.595Z,49.16
2024-01-10T12:58:53.230Z,48.95
2024-01-10T13:01:19.884Z,45.89
2024-01-10T13:03:46.744Z,46.01
2024-01-10T13:06:13.446Z,45.86
2024-01-10T13:08:40.172Z,44.50
2024-01-10T13:11:06.940Z,47.72
2024-01-10T13:13:33.571Z,47.96
2024-01-10T13:16:00.276Z,46.06
2024-01-10T13:18:27.221Z,47.75
2024-01-10T13:20:54.014Z,46.47
2024-01-10T13:23:20.879Z,48.47
2024-01-10T13:25:47.521Z,46.25
2024-01-10T13:28:14.246Z,47.15
2024-01-10T13:30:40.980Z,43.36
2024-01-10T13:33:08.302Z,44.82
2024-01-10T13:35:35.058Z,45.23
2024-01-10T13:38:01.775Z,46.27
2024-01-10T13:40:28.364Z,45.53
2024-01-10T13:42:55.277Z,47.26
2024-01-10T13:45:21.916Z,47.33
2024-01-10T13:47:48.501Z,48.25
2024-01-10T13:50:15.445Z,43.99
2024-01-10T13:52:42.142Z,46.39
2024-01-10T13:55:09.199Z,46.57
2024-01-10T13:57:35.870Z,45.69
2024-01-10T14:00:04.643Z,47.52
2024-01-10T14:02:31.399Z,49.09
2024-01-10T14:04:58.225Z,47.72
2024-01-10T14:07:25.080Z,47.90
2024-01-10T14:09:52.359Z,48.31
2024-01-10T14:12:19.103Z,49.42
2024-01-10T14:14:45.704Z,51.39
2024-01-10T14:17:12.398Z,50.40
2024-01-10T14:19:39.302Z,51.14
2024-01-10T14:22:13.723Z,49.40
2024-01-10T14:24:45.242Z,48.42
2024-01-10T14:27:12.148Z,50.72
2024-01-10T14:29:38.983Z,53.95
2024-01-10T14:32:16.967Z,54.23
2024-01-10T14:34:45.061Z,54.65
2024-01-10T14:37:11.820Z,53.57
2024-01-10T14:39:38.473Z,51.67
2024-01-10T14:42:06.225Z,56.87
2024-01-10T14:44:32.947Z,54.10
2024-01-10T14:47:06.608Z,55.73
2024-01-10T14:49:37.287Z,54.39
2024-01-10T14:52:04.167Z,57.02
2024-01-10T14:54:30.845Z,59.10
2024-01-10T14:56:57.572Z,59.41
2024-01-10T14:59:32.341Z,58.39
2024-01-10T15:02:07.177Z,60.61
2024-01-10T15:04:38.229Z,60.00
2024-01-10T15:07:05.138Z,59.91
2024-01-10T15:09:31.770Z,60.02
2024-01-10T15:11:58.399Z,60.75
2024-01-10T15:14:25.051Z,59.61
2024-01-10T15:16:51.833Z,61.90
2024-01-10T15:19:18.534Z,61.13
2024-01-10T15:21:45.169Z,61.58
2024-01-10T15:24:11.766Z,61.85
2024-01-10T15:26:38.513Z,61.86
2024-01-10T15:29:05.254Z,62.40
2024-01-10T15:31:31.974Z,63.79
2024-01-10T15:33:58.649Z,63.19
2024-01-10T15:36:26.272Z,62.38
2024-01-10T15:38:53.911Z,62.36
2024-01-10T15:41:20.645Z,62.13
2024-01-10T15:43:47.362Z,62.58
2024-01-10T15:46:19.468Z,63.68
2024-01-10T15:48:46.218Z,63.70
2024-01-10T15:51:12.909Z,64.19
2024-01-10T15:53:39.637Z,64.80
2024-01-10T15:56:06.434Z,63.97
2024-01-10T15:58:33.107Z,65.11
2024-01-10T16:01:00.282Z,65.39
2024-01-10T16:03:27.078Z,65.33
2024-01-10T16:05:53.831Z,66.04
2024-01-10T16:08:20.673Z,66.56
2024-01-10T16:10:47.345Z,66.81
2024-01-10T16:13:13.960Z,67.31
2024-01-10T16:15:40.592Z,67.23
2024-01-10T16:18:07.649Z,66.53
2024-01-10T16:20:34.340Z,67.48
2024-01-10T16:23:01.011Z,67.97
2024-01-10T16:25:27.875Z,67.62
2024-01-10T16:27:54.523Z,68.22
2024-01-10T16:30:21.297Z,71.62
2024-01-10T16:32:48.027Z,72.53
2024-01-10T16:35:14.855Z,72.59
2024-01-10T16:37:41.568Z,72.35
2024-01-10T16:40:08.757Z,71.53
2024-01-10T16:42:35.372Z,70.02
2024-01-10T16:45:02.521Z,69.09
2024-01-10T16:47:30.941Z,69.64
2024-01-10T16:49:57.775Z,70.27
2024-01-10T16:52:24.423Z,71.18
2024-01-10T16:54:51.115Z,74.22
2024-01-10T16:57:17.695Z,76.83
2024-01-10T16:59:44.437Z,75.76
2024-01-10T17:02:11.228Z,72.19
2024-01-10T17:04:37.892Z,71.41
2024-01-10T17:07:04.845Z,69.84
2024-01-10T17:09:31.547Z,71.94
2024-01-10T17:11:58.291Z,73.03
2024-01-10T17:14:25.032Z,72.78
2024-01-10T17:16:51.827Z,72.31
2024-01-10T17:19:18.559Z,72.07
2024-01-10T17:21:45.221Z,72.30
2024-01-10T17:24:11.891Z,73.16
2024-01-10T17:26:38.551Z,74.12
2024-01-10T17:29:05.237Z,74.98
2024-01-10T17:31:31.931Z,75.35
2024-01-10T17:33:58.632Z,75.33
2024-01-10T17:36:25.475Z,75.00
2024-01-10T17:38:52.190Z,75.68
2024-01-10T17:41:19.392Z,75.31
2024-01-10T17:43:46.101Z,75.51
2024-01-10T17:46:12.783Z,76.91
2024-01-10T17:48:39.530Z,76.99
2024-01-10T17:51:06.229Z,77.27
2024-01-10T17:53:32.955Z,77.67
2024-01-10T17:55:59.769Z,77.76
2024-01-10T17:58:26.461Z,77.64
2024-01-10T18:00:53.139Z,79.09
2024-01-10T18:03:20.220Z,78.53
2024-01-10T18:05:47.069Z,78.63
2024-01-10T18:08:13.749Z,78.17
2024-01-10T18:10:40.342Z,78.96
2024-01-10T18:13:06.938Z,79.16
2024-01-10T18:15:33.528Z,78.34
2024-01-10T18:18:00.501Z,78.10
2024-01-10T18:20:27.224Z,78.04
2024-01-10T18:22:54.115Z,78.52
2024-01-10T18:25:20.763Z,78.60
2024-01-10T18:27:47.424Z,79.86
2024-01-10T18:30:15.249Z,80.44
2024-01-10T18:32:42.069Z,81.44
2024-01-10T18:35:09.021Z,81.19
2024-01-10T18:37:35.729Z,82.21
2024-01-10T18:40:02.416Z,83.33
2024-01-10T18:42:29.063Z,84.13
2024-01-10T18:44:55.664Z,82.97
2024-01-10T18:47:24.009Z,83.27
2024-01-10T18:49:52.146Z,83.00
2024-01-10T18:52:18.786Z,84.48
2024-01-10T18:54:45.361Z,84.00
2024-01-10T18:57:12.105Z,84.88
2024-01-10T18:59:38.867Z,84.78
2024-01-10T19:02:05.568Z,83.52
2024-01-10T19:04:32.395Z,83.31
2024-01-10T19:06:59.191Z,83.17
2024-01-10T19:09:25.847Z,82.56
2024-01-10T19:11:52.526Z,82.42
2024-01-10T19:14:20.146Z,82.57
2024-01-10T19:16:47.715Z,82.32
2024-01-10T19:19:14.494Z,83.08
2024-01-10T19:21:41.446Z,84.84
2024-01-10T19:24:08.278Z,85.36
2024-01-10T19:26:34.931Z,85.27
2024-01-10T19:29:01.677Z,84.96
2024-01-10T19:31:28.750Z,84.89
2024-01-10T19:33:55.435Z,84.87
2024-01-10T19:36:24.980Z,85.05
2024-01-10T19:38:53.574Z,84.78
2024-01-10T19:41:24.695Z,84.63
2024-01-10T19:43:52.392Z,84.25
2024-01-10T19:46:19.927Z,84.19
2024-01-10T19:48:47.548Z,84.24
2024-01-10T19:51:15.090Z,84.00
2024-01-10T19:53:41.863Z,85.62
2024-01-10T19:56:08.565Z,85.44
2024-01-10T19:58:35.326Z,84.96
2024-01-10T20:01:01.980Z,86.10
2024-01-10T20:03:28.820Z,85.40
2024-01-10T20:05:55.674Z,85.22
2024-01-10T20:08:22.368Z,86.32
2024-01-10T20:10:49.087Z,86.21
2024-01-10T20:13:15.765Z,86.60
2024-01-10T20:15:42.474Z,87.63
2024-01-10T20:18:09.244Z,86.61
2024-01-10T20:20:35.952Z,87.63
2024-01-10T20:23:03.519Z,87.32
2024-01-10T20:25:30.274Z,87.58
2024-01-10T20:27:56.998Z,87.46
2024-01-10T20:30:23.750Z,87.18
2024-01-10T20:32:50.972Z,87.80
2024-01-10T20:35:17.712Z,87.93
2024-01-10T20:37:44.348Z,87.76
2024-01-10T20:40:11.628Z,87.38
2024-01-10T20:42:38.651Z,88.07
2024-01-10T20:45:06.646Z,90.43
2024-01-10T20:47:33.353Z,90.32
2024-01-10T20:50:00.510Z,88.85
2024-01-10T20:52:27.202Z,89.04
2024-01-10T20:54:54.127Z,88.22
2024-01-10T20:57:20.874Z,88.95
2024-01-10T20:59:48.222Z,91.29
2024-01-10T21:02:15.452Z,92.13
2024-01-10T21:04:42.133Z,90.80
2024-01-10T21:07:13.338Z,89.42
2024-01-10T21:09:41.071Z,89.52
2024-01-10T21:12:11.370Z,89.26
2024-01-10T21:14:39.661Z,88.32
2024-01-10T21:17:06.398Z,88.45
2024-01-10T21:19:33.428Z,89.25
2024-01-10T21:22:00.126Z,89.51
2024-01-10T21:24:27.046Z,90.27
2024-01-10T21:26:54.429Z,89.66
2024-01-10T21:29:21.156Z,89.40
2024-01-10T21:31:48.349Z,89.20
2024-01-10T21:34:15.176Z,89.24
2024-01-10T21:36:41.942Z,89.97
2024-01-10T21:39:08.550Z,90.38
2024-01-10T21:41:35.387Z,90.49
2024-01-10T21:44:02.044Z,90.06
2024-01-10T21:46:28.684Z,89.30
2024-01-10T21:48:55.634Z,89.39
2024-01-10T21:51:22.288Z,90.04
2024-01-10T21:53:48.931Z,89.63
2024-01-10T21:56:15.581Z,89.58
2024-01-10T21:58:42.216Z,89.35
2024-01-10T22:01:09.038Z,88.95
2024-01-10T22:03:36.623Z,87.72
2024-01-10T22:06:04.086Z,88.27
2024-01-10T22:08:30.976Z,88.83
2024-01-10T22:10:57.723Z,95.06
2024-01-10T22:13:24.409Z,99.92
2024-01-10T22:15:51.064Z,97.04
2024-01-10T22:18:18.814Z,96.05
2024-01-10T22:20:45.970Z,95.04
2024-01-10T22:23:12.677Z,99.12
2024-01-10T22:25:39.358Z,99.23
2024-01-10T22:28:06.347Z,97.05
2024-01-10T22:30:33.008Z,96.52
2024-01-10T22:32:59.808Z,94.57
2024-01-10T22:35:26.602Z,93.58
2024-01-10T22:37:53.391Z,92.09
2024-01-10T22:40:20.100Z,91.94
2024-01-10T22:42:46.716Z,90.84
2024-01-10T22:45:13.377Z,90.23
2024-01-10T22:47:40.486Z,90.02
2024-01-10T22:50:07.738Z,89.48
2024-01-10T22:52:34.429Z,88.57
2024-01-10T22:55:01.057Z,89.59
2024-01-10T22:57:27.755Z,89.23
2024-01-10T22:59:54.370Z,88.24
2024-01-10T23:02:21.055Z,88.10
2024-01-10T23:04:47.723Z,88.78
2024-01-10T23:07:14.380Z,88.12
2024-01-10T23:09:41.067Z,87.86
2024-01-10T23:12:08.090Z,87.68
2024-01-10T23:14:34.947Z,87.74
2024-01-10T23:17:01.611Z,87.99
2024-01-10T23:19:28.371Z,87.33
2024-01-10T23:21:55.069Z,86.91
2024-01-10T23:24:21.808Z,87.66
2024-01-10T23:26:48.581Z,88.09
2024-01-10T23:29:15.245Z,87.79
2024-01-10T23:31:42.024Z,87.83
2024-01-10T23:34:09.390Z,88.08
2024-01-10T23:36:37.191Z,88.52
2024-01-10T23:39:03.812Z,88.76
2024-01-10T23:41:30.587Z,88.83
2024-01-10T23:43:57.384Z,88.51
2024-01-10T23:46:24.030Z,89.16
2024-01-10T23:48:50.777Z,88.29
2024-01-10T23:51:17.471Z,88.15
2024-01-10T23:53:44.088Z,87.54
2024-01-10T23:56:10.792Z,88.06
2024-01-10T23:58:38.756Z,88.90
